sensor_id;sensor_type;location;lat;lon;timestamp;pressure;altitude;pressure_sealevel;temperature;humidity
26775;BME280;14362;51.902;7.626;2023-04-20T00:01:44;101491.13;;;8.86;45.87
26775;BME280;14362;51.902;7.626;2023-04-20T00:05:46;101483.69;;;8.82;46.85
26775;BME280;14362;51.902;7.626;2023-04-20T00:09:49;101487.41;;;8.72;47.00
26775;BME280;14362;51.902;7.626;2023-04-20T00:13:50;101484.03;;;8.75;47.85
26775;BME280;14362;51.902;7.626;2023-04-20T00:17:53;101464.28;;;8.77;48.65
26775;BME280;14362;51.902;7.626;2023-04-20T00:21:55;101468.19;;;8.76;49.68
26775;BME280;14362;51.902;7.626;2023-04-20T00:25:56;101452.09;;;8.73;50.27
26775;BME280;14362;51.902;7.626;2023-04-20T00:29:58;101447.13;;;8.70;51.30
26775;BME280;14362;51.902;7.626;2023-04-20T00:34:00;101438.28;;;8.68;52.80
26775;BME280;14362;51.902;7.626;2023-04-20T00:38:02;101432.81;;;8.58;54.01
26775;BME280;14362;51.902;7.626;2023-04-20T00:42:04;101428.09;;;8.58;54.59
26775;BME280;14362;51.902;7.626;2023-04-20T00:46:05;101412.72;;;8.66;56.28
26775;BME280;14362;51.902;7.626;2023-04-20T00:50:09;101428.31;;;8.85;56.34
26775;BME280;14362;51.902;7.626;2023-04-20T00:54:11;101422.75;;;8.62;58.42
26775;BME280;14362;51.902;7.626;2023-04-20T00:58:12;101415.13;;;8.72;59.46
26775;BME280;14362;51.902;7.626;2023-04-20T01:02:14;101409.16;;;8.84;60.35
26775;BME280;14362;51.902;7.626;2023-04-20T01:06:17;101404.06;;;8.67;62.20
26775;BME280;14362;51.902;7.626;2023-04-20T01:10:18;101385.63;;;8.76;63.87
26775;BME280;14362;51.902;7.626;2023-04-20T01:14:20;101386.97;;;8.79;65.30
26775;BME280;14362;51.902;7.626;2023-04-20T01:18:21;101374.75;;;8.80;65.79
26775;BME280;14362;51.902;7.626;2023-04-20T01:22:24;101369.41;;;8.83;66.10
26775;BME280;14362;51.902;7.626;2023-04-20T01:26:26;101363.03;;;8.83;67.39
26775;BME280;14362;51.902;7.626;2023-04-20T01:30:27;101363.75;;;8.70;70.00
26775;BME280;14362;51.902;7.626;2023-04-20T01:34:29;101355.13;;;8.71;70.88
26775;BME280;14362;51.902;7.626;2023-04-20T01:38:32;101355.72;;;8.68;72.09
26775;BME280;14362;51.902;7.626;2023-04-20T01:42:34;101341.28;;;8.66;75.71
26775;BME280;14362;51.902;7.626;2023-04-20T01:46:36;101335.59;;;8.76;78.09
26775;BME280;14362;51.902;7.626;2023-04-20T01:50:38;101333.25;;;8.65;81.36
26775;BME280;14362;51.902;7.626;2023-04-20T01:54:40;101321.00;;;8.66;81.85
26775;BME280;14362;51.902;7.626;2023-04-20T01:58:42;101317.72;;;8.64;82.62
26775;BME280;14362;51.902;7.626;2023-04-20T02:02:43;101320.31;;;8.55;84.35
26775;BME280;14362;51.902;7.626;2023-04-20T02:06:45;101322.25;;;8.55;84.45
26775;BME280;14362;51.902;7.626;2023-04-20T02:10:48;101313.56;;;8.61;82.97
26775;BME280;14362;51.902;7.626;2023-04-20T02:14:51;101321.38;;;8.36;85.03
26775;BME280;14362;51.902;7.626;2023-04-20T02:18:53;101303.16;;;8.48;85.76
26775;BME280;14362;51.902;7.626;2023-04-20T02:22:55;101301.16;;;8.54;85.46
26775;BME280;14362;51.902;7.626;2023-04-20T02:26:58;101299.03;;;8.46;86.42
26775;BME280;14362;51.902;7.626;2023-04-20T02:31:00;101297.38;;;8.45;86.87
26775;BME280;14362;51.902;7.626;2023-04-20T02:35:01;101302.28;;;8.53;84.85
26775;BME280;14362;51.902;7.626;2023-04-20T02:39:04;101296.25;;;8.46;85.60
26775;BME280;14362;51.902;7.626;2023-04-20T02:43:07;101301.28;;;8.44;87.06
26775;BME280;14362;51.902;7.626;2023-04-20T02:47:08;101294.34;;;8.41;89.05
26775;BME280;14362;51.902;7.626;2023-04-20T02:51:09;101306.50;;;8.27;94.24
26775;BME280;14362;51.902;7.626;2023-04-20T02:55:11;101296.59;;;8.16;97.95
26775;BME280;14362;51.902;7.626;2023-04-20T02:59:14;101295.63;;;8.02;100.00
26775;BME280;14362;51.902;7.626;2023-04-20T03:03:15;101298.59;;;8.10;100.00
26775;BME280;14362;51.902;7.626;2023-04-20T03:07:17;101299.53;;;8.01;100.00
26775;BME280;14362;51.902;7.626;2023-04-20T03:11:18;101292.56;;;8.04;100.00
26775;BME280;14362;51.902;7.626;2023-04-20T03:15:21;101290.03;;;8.07;100.00
26775;BME280;14362;51.902;7.626;2023-04-20T03:19:22;101295.84;;;8.06;100.00
26775;BME280;14362;51.902;7.626;2023-04-20T03:23:24;101285.47;;;7.93;100.00
26775;BME280;14362;51.902;7.626;2023-04-20T03:27:25;101272.53;;;7.83;100.00
26775;BME280;14362;51.902;7.626;2023-04-20T03:31:28;101272.88;;;7.77;100.00
26775;BME280;14362;51.902;7.626;2023-04-20T03:35:29;101269.78;;;7.78;100.00
26775;BME280;14362;51.902;7.626;2023-04-20T03:39:31;101264.81;;;7.75;100.00
26775;BME280;14362;51.902;7.626;2023-04-20T03:43:32;101276.25;;;7.69;100.00
26775;BME280;14362;51.902;7.626;2023-04-20T03:47:35;101283.78;;;7.68;100.00
26775;BME280;14362;51.902;7.626;2023-04-20T03:51:36;101270.31;;;7.52;100.00
26775;BME280;14362;51.902;7.626;2023-04-20T03:55:39;101254.47;;;7.57;100.00
26775;BME280;14362;51.902;7.626;2023-04-20T03:59:40;101259.88;;;7.72;100.00
26775;BME280;14362;51.902;7.626;2023-04-20T04:03:43;101257.56;;;7.51;100.00
26775;BME280;14362;51.902;7.626;2023-04-20T04:07:44;101262.66;;;7.44;100.00
26775;BME280;14362;51.902;7.626;2023-04-20T04:11:46;101256.81;;;7.45;100.00
26775;BME280;14362;51.902;7.626;2023-04-20T04:15:47;101253.53;;;7.38;100.00
26775;BME280;14362;51.902;7.626;2023-04-20T04:19:50;101250.72;;;7.43;100.00
26775;BME280;14362;51.902;7.626;2023-04-20T04:23:51;101262.03;;;7.47;100.00
26775;BME280;14362;51.902;7.626;2023-04-20T04:27:53;101253.84;;;7.37;100.00
26775;BME280;14362;51.902;7.626;2023-04-20T04:31:54;101258.53;;;7.36;100.00
26775;BME280;14362;51.902;7.626;2023-04-20T04:35:59;101259.06;;;7.38;100.00
26775;BME280;14362;51.902;7.626;2023-04-20T04:40:00;101258.22;;;7.43;100.00
26775;BME280;14362;51.902;7.626;2023-04-20T04:44:06;101261.84;;;7.38;100.00
26775;BME280;14362;51.902;7.626;2023-04-20T04:48:08;101278.00;;;7.31;100.00
26775;BME280;14362;51.902;7.626;2023-04-20T04:52:12;101263.88;;;7.28;100.00
26775;BME280;14362;51.902;7.626;2023-04-20T04:56:13;101279.53;;;7.47;100.00
26775;BME280;14362;51.902;7.626;2023-04-20T05:00:18;101274.91;;;7.38;100.00
26775;BME280;14362;51.902;7.626;2023-04-20T05:04:19;101262.97;;;7.37;100.00
26775;BME280;14362;51.902;7.626;2023-04-20T05:08:22;101265.47;;;7.39;100.00
26775;BME280;14362;51.902;7.626;2023-04-20T05:12:24;101252.19;;;7.36;100.00
26775;BME280;14362;51.902;7.626;2023-04-20T05:16:25;101250.44;;;7.45;100.00
26775;BME280;14362;51.902;7.626;2023-04-20T05:20:27;101265.50;;;7.34;100.00
26775;BME280;14362;51.902;7.626;2023-04-20T05:24:30;101261.81;;;7.43;100.00
26775;BME280;14362;51.902;7.626;2023-04-20T05:28:32;101256.59;;;7.37;100.00
26775;BME280;14362;51.902;7.626;2023-04-20T05:32:33;101279.94;;;7.31;100.00
26775;BME280;14362;51.902;7.626;2023-04-20T05:36:34;101277.16;;;7.31;100.00
26775;BME280;14362;51.902;7.626;2023-04-20T05:40:37;101282.69;;;7.36;100.00
26775;BME280;14362;51.902;7.626;2023-04-20T05:44:39;101273.59;;;7.30;100.00
26775;BME280;14362;51.902;7.626;2023-04-20T05:48:42;101289.41;;;7.58;100.00
26775;BME280;14362;51.902;7.626;2023-04-20T05:52:43;101294.56;;;7.41;100.00
26775;BME280;14362;51.902;7.626;2023-04-20T05:56:46;101294.47;;;7.51;100.00
26775;BME280;14362;51.902;7.626;2023-04-20T06:00:48;101299.72;;;7.53;100.00
26775;BME280;14362;51.902;7.626;2023-04-20T06:04:49;101287.00;;;7.47;100.00
26775;BME280;14362;51.902;7.626;2023-04-20T06:08:51;101300.59;;;7.48;100.00
26775;BME280;14362;51.902;7.626;2023-04-20T06:12:53;101300.59;;;7.48;100.00
26775;BME280;14362;51.902;7.626;2023-04-20T06:16:55;101300.13;;;7.36;100.00
26775;BME280;14362;51.902;7.626;2023-04-20T06:20:56;101297.13;;;7.33;100.00
26775;BME280;14362;51.902;7.626;2023-04-20T06:24:59;101297.44;;;7.26;100.00
26775;BME280;14362;51.902;7.626;2023-04-20T06:29:01;101298.56;;;7.25;100.00
26775;BME280;14362;51.902;7.626;2023-04-20T06:33:03;101290.69;;;7.37;100.00
26775;BME280;14362;51.902;7.626;2023-04-20T06:37:05;101286.22;;;7.41;100.00
26775;BME280;14362;51.902;7.626;2023-04-20T06:41:06;101286.31;;;7.31;100.00
26775;BME280;14362;51.902;7.626;2023-04-20T06:45:10;101289.94;;;7.27;100.00
26775;BME280;14362;51.902;7.626;2023-04-20T06:49:11;101292.69;;;7.32;100.00
26775;BME280;14362;51.902;7.626;2023-04-20T06:53:13;101295.41;;;7.42;100.00
26775;BME280;14362;51.902;7.626;2023-04-20T06:57:14;101290.00;;;7.22;100.00
26775;BME280;14362;51.902;7.626;2023-04-20T07:01:17;101296.13;;;7.19;100.00
26775;BME280;14362;51.902;7.626;2023-04-20T07:05:18;101296.88;;;7.29;100.00
26775;BME280;14362;51.902;7.626;2023-04-20T07:09:20;101288.44;;;7.44;100.00
26775;BME280;14362;51.902;7.626;2023-04-20T07:13:22;101284.88;;;7.39;100.00
26775;BME280;14362;51.902;7.626;2023-04-20T07:17:27;101285.16;;;7.66;100.00
26775;BME280;14362;51.902;7.626;2023-04-20T07:21:29;101286.06;;;7.61;100.00
26775;BME280;14362;51.902;7.626;2023-04-20T07:25:30;101285.31;;;7.79;100.00
26775;BME280;14362;51.902;7.626;2023-04-20T07:29:32;101285.13;;;7.71;100.00
26775;BME280;14362;51.902;7.626;2023-04-20T07:33:35;101273.09;;;7.80;100.00
26775;BME280;14362;51.902;7.626;2023-04-20T07:37:36;101279.63;;;7.66;100.00
26775;BME280;14362;51.902;7.626;2023-04-20T07:41:38;101276.81;;;7.71;100.00
26775;BME280;14362;51.902;7.626;2023-04-20T07:45:39;101276.97;;;7.56;100.00
26775;BME280;14362;51.902;7.626;2023-04-20T07:49:43;101277.47;;;7.63;100.00
26775;BME280;14362;51.902;7.626;2023-04-20T07:53:44;101268.47;;;7.71;100.00
26775;BME280;14362;51.902;7.626;2023-04-20T07:57:45;101278.84;;;7.60;100.00
26775;BME280;14362;51.902;7.626;2023-04-20T08:01:47;101275.91;;;7.75;100.00
26775;BME280;14362;51.902;7.626;2023-04-20T08:05:50;101273.84;;;7.62;100.00
26775;BME280;14362;51.902;7.626;2023-04-20T08:09:52;101271.50;;;7.74;100.00
26775;BME280;14362;51.902;7.626;2023-04-20T08:13:53;101261.13;;;7.85;100.00
26775;BME280;14362;51.902;7.626;2023-04-20T08:17:55;101261.59;;;7.92;100.00
26775;BME280;14362;51.902;7.626;2023-04-20T08:21:58;101259.66;;;8.15;100.00
26775;BME280;14362;51.902;7.626;2023-04-20T08:26:00;101262.44;;;8.20;100.00
26775;BME280;14362;51.902;7.626;2023-04-20T08:30:01;101258.34;;;8.36;100.00
26775;BME280;14362;51.902;7.626;2023-04-20T08:34:03;101247.06;;;8.46;100.00
26775;BME280;14362;51.902;7.626;2023-04-20T08:38:06;101245.03;;;8.33;100.00
26775;BME280;14362;51.902;7.626;2023-04-20T08:42:08;101234.78;;;8.52;100.00
26775;BME280;14362;51.902;7.626;2023-04-20T08:46:09;101240.00;;;8.77;100.00
26775;BME280;14362;51.902;7.626;2023-04-20T08:50:11;101244.63;;;8.82;100.00
26775;BME280;14362;51.902;7.626;2023-04-20T08:54:14;101262.56;;;9.08;100.00
26775;BME280;14362;51.902;7.626;2023-04-20T08:58:16;101237.91;;;9.19;100.00
26775;BME280;14362;51.902;7.626;2023-04-20T09:02:17;101242.03;;;9.22;100.00
26775;BME280;14362;51.902;7.626;2023-04-20T09:06:18;101237.53;;;9.26;100.00
26775;BME280;14362;51.902;7.626;2023-04-20T09:10:23;101236.06;;;9.47;100.00
26775;BME280;14362;51.902;7.626;2023-04-20T09:14:25;101248.03;;;9.61;100.00
26775;BME280;14362;51.902;7.626;2023-04-20T09:18:26;101255.22;;;9.48;100.00
26775;BME280;14362;51.902;7.626;2023-04-20T09:22:29;101244.34;;;9.33;100.00
26775;BME280;14362;51.902;7.626;2023-04-20T09:26:32;101252.88;;;9.05;100.00
26775;BME280;14362;51.902;7.626;2023-04-20T09:30:39;101249.50;;;9.08;100.00
26775;BME280;14362;51.902;7.626;2023-04-20T09:34:43;101253.34;;;8.94;100.00
26775;BME280;14362;51.902;7.626;2023-04-20T09:38:44;101255.53;;;8.97;100.00
26775;BME280;14362;51.902;7.626;2023-04-20T09:42:48;101249.22;;;8.91;100.00
26775;BME280;14362;51.902;7.626;2023-04-20T09:46:50;101247.31;;;9.05;100.00
26775;BME280;14362;51.902;7.626;2023-04-20T09:50:52;101245.22;;;9.15;100.00
26775;BME280;14362;51.902;7.626;2023-04-20T09:54:54;101246.09;;;9.29;100.00
26775;BME280;14362;51.902;7.626;2023-04-20T09:58:58;101241.03;;;9.63;100.00
26775;BME280;14362;51.902;7.626;2023-04-20T10:03:00;101242.94;;;9.81;100.00
26775;BME280;14362;51.902;7.626;2023-04-20T10:07:01;101237.38;;;9.81;100.00
26775;BME280;14362;51.902;7.626;2023-04-20T10:11:05;101244.56;;;9.69;100.00
26775;BME280;14362;51.902;7.626;2023-04-20T10:15:10;101246.00;;;9.80;100.00
26775;BME280;14362;51.902;7.626;2023-04-20T10:19:12;101252.06;;;10.00;100.00
26775;BME280;14362;51.902;7.626;2023-04-20T10:23:14;101253.84;;;9.78;100.00
26775;BME280;14362;51.902;7.626;2023-04-20T10:27:18;101235.59;;;9.85;100.00
26775;BME280;14362;51.902;7.626;2023-04-20T10:31:21;101245.94;;;9.98;100.00
26775;BME280;14362;51.902;7.626;2023-04-20T10:35:24;101241.59;;;9.92;100.00
26775;BME280;14362;51.902;7.626;2023-04-20T10:39:25;101245.59;;;9.86;100.00
26775;BME280;14362;51.902;7.626;2023-04-20T10:43:31;101235.09;;;9.97;100.00
26775;BME280;14362;51.902;7.626;2023-04-20T10:47:35;101231.44;;;10.15;100.00
26775;BME280;14362;51.902;7.626;2023-04-20T10:51:45;101234.22;;;10.41;100.00
26775;BME280;14362;51.902;7.626;2023-04-20T10:55:56;101235.63;;;10.66;96.89
26775;BME280;14362;51.902;7.626;2023-04-20T10:59:58;101222.81;;;10.65;97.27
26775;BME280;14362;51.902;7.626;2023-04-20T11:04:01;101234.19;;;10.55;92.39
26775;BME280;14362;51.902;7.626;2023-04-20T11:08:03;101213.00;;;10.67;95.14
26775;BME280;14362;51.902;7.626;2023-04-20T11:12:05;101229.38;;;10.82;94.80
26775;BME280;14362;51.902;7.626;2023-04-20T11:16:11;101233.44;;;10.76;92.62
26775;BME280;14362;51.902;7.626;2023-04-20T11:20:14;101211.59;;;10.92;91.83
26775;BME280;14362;51.902;7.626;2023-04-20T11:24:17;101221.31;;;11.16;94.37
26775;BME280;14362;51.902;7.626;2023-04-20T11:28:19;101204.00;;;11.06;83.85
26775;BME280;14362;51.902;7.626;2023-04-20T11:32:20;101209.59;;;11.27;83.26
26775;BME280;14362;51.902;7.626;2023-04-20T11:36:24;101200.06;;;11.50;79.96
26775;BME280;14362;51.902;7.626;2023-04-20T11:40:27;101188.84;;;11.72;73.47
26775;BME280;14362;51.902;7.626;2023-04-20T11:44:29;101193.31;;;12.12;75.41
26775;BME280;14362;51.902;7.626;2023-04-20T11:48:30;101192.38;;;12.25;72.15
26775;BME280;14362;51.902;7.626;2023-04-20T11:52:33;101201.44;;;11.92;73.84
26775;BME280;14362;51.902;7.626;2023-04-20T11:56:34;101201.53;;;11.78;71.12
26775;BME280;14362;51.902;7.626;2023-04-20T12:00:37;101199.06;;;12.07;70.37
26775;BME280;14362;51.902;7.626;2023-04-20T12:04:38;101187.44;;;12.22;69.70
26775;BME280;14362;51.902;7.626;2023-04-20T12:08:41;101187.13;;;12.32;65.48
26775;BME280;14362;51.902;7.626;2023-04-20T12:12:43;101195.63;;;12.19;68.16
26775;BME280;14362;51.902;7.626;2023-04-20T12:16:44;101177.75;;;12.36;67.45
26775;BME280;14362;51.902;7.626;2023-04-20T12:20:46;101192.44;;;12.50;69.11
26775;BME280;14362;51.902;7.626;2023-04-20T12:24:50;101183.31;;;12.28;68.87
26775;BME280;14362;51.902;7.626;2023-04-20T12:28:52;101194.13;;;12.13;70.99
26775;BME280;14362;51.902;7.626;2023-04-20T12:32:53;101194.28;;;12.08;70.90
26775;BME280;14362;51.902;7.626;2023-04-20T12:36:54;101184.84;;;11.95;71.73
26775;BME280;14362;51.902;7.626;2023-04-20T12:40:57;101188.50;;;11.96;73.01
26775;BME280;14362;51.902;7.626;2023-04-20T12:44:59;101183.03;;;11.91;70.08
26775;BME280;14362;51.902;7.626;2023-04-20T12:49:00;101179.00;;;12.05;70.51
26775;BME280;14362;51.902;7.626;2023-04-20T12:53:02;101186.97;;;11.90;70.53
26775;BME280;14362;51.902;7.626;2023-04-20T12:57:05;101178.25;;;11.91;70.73
26775;BME280;14362;51.902;7.626;2023-04-20T13:01:06;101170.31;;;12.15;70.17
26775;BME280;14362;51.902;7.626;2023-04-20T13:05:09;101172.00;;;12.33;65.68
26775;BME280;14362;51.902;7.626;2023-04-20T13:09:10;101169.72;;;12.43;64.56
26775;BME280;14362;51.902;7.626;2023-04-20T13:13:13;101164.94;;;12.35;62.32
26775;BME280;14362;51.902;7.626;2023-04-20T13:17:14;101153.44;;;12.37;63.12
26775;BME280;14362;51.902;7.626;2023-04-20T13:21:16;101164.59;;;12.28;63.70
26775;BME280;14362;51.902;7.626;2023-04-20T13:25:17;101159.38;;;12.44;64.47
26775;BME280;14362;51.902;7.626;2023-04-20T13:29:20;101159.88;;;12.54;63.82
26775;BME280;14362;51.902;7.626;2023-04-20T13:33:21;101150.78;;;12.40;63.54
26775;BME280;14362;51.902;7.626;2023-04-20T13:37:23;101144.56;;;12.69;63.67
26775;BME280;14362;51.902;7.626;2023-04-20T13:41:24;101157.09;;;12.71;63.05
26775;BME280;14362;51.902;7.626;2023-04-20T13:45:27;101156.09;;;12.59;61.08
26775;BME280;14362;51.902;7.626;2023-04-20T13:49:29;101142.53;;;12.27;61.99
26775;BME280;14362;51.902;7.626;2023-04-20T13:53:31;101133.72;;;12.76;66.88
26775;BME280;14362;51.902;7.626;2023-04-20T13:57:32;101145.56;;;12.64;60.45
26775;BME280;14362;51.902;7.626;2023-04-20T14:01:35;101123.84;;;12.53;60.01
26775;BME280;14362;51.902;7.626;2023-04-20T14:05:37;101121.53;;;12.72;61.62
26775;BME280;14362;51.902;7.626;2023-04-20T14:09:38;101111.69;;;13.08;59.99
26775;BME280;14362;51.902;7.626;2023-04-20T14:13:40;101108.28;;;13.48;58.96
26775;BME280;14362;51.902;7.626;2023-04-20T14:17:43;101109.81;;;13.37;57.97
26775;BME280;14362;51.902;7.626;2023-04-20T14:21:45;101109.66;;;13.26;57.91
26775;BME280;14362;51.902;7.626;2023-04-20T14:25:46;101095.16;;;13.24;57.49
26775;BME280;14362;51.902;7.626;2023-04-20T14:29:48;101104.44;;;12.99;57.81
26775;BME280;14362;51.902;7.626;2023-04-20T14:33:51;101105.41;;;12.77;59.65
26775;BME280;14362;51.902;7.626;2023-04-20T14:37:53;101099.81;;;13.11;62.00
26775;BME280;14362;51.902;7.626;2023-04-20T14:41:54;101109.34;;;13.19;59.83
26775;BME280;14362;51.902;7.626;2023-04-20T14:45:56;101107.06;;;13.04;59.40
26775;BME280;14362;51.902;7.626;2023-04-20T14:50:01;101092.09;;;12.74;59.79
26775;BME280;14362;51.902;7.626;2023-04-20T14:54:02;101097.84;;;13.03;59.70
26775;BME280;14362;51.902;7.626;2023-04-20T14:58:04;101089.75;;;13.19;58.86
26775;BME280;14362;51.902;7.626;2023-04-20T15:02:05;101084.78;;;13.32;60.15
26775;BME280;14362;51.902;7.626;2023-04-20T15:06:08;101100.66;;;12.95;58.21
26775;BME280;14362;51.902;7.626;2023-04-20T15:10:10;101094.91;;;12.83;62.29
26775;BME280;14362;51.902;7.626;2023-04-20T15:14:15;101087.63;;;13.16;60.63
26775;BME280;14362;51.902;7.626;2023-04-20T15:18:17;101088.13;;;13.18;56.37
26775;BME280;14362;51.902;7.626;2023-04-20T15:22:20;101074.28;;;13.21;54.53
26775;BME280;14362;51.902;7.626;2023-04-20T15:26:21;101061.63;;;13.07;53.51
26775;BME280;14362;51.902;7.626;2023-04-20T15:30:23;101077.28;;;12.91;54.69
26775;BME280;14362;51.902;7.626;2023-04-20T15:34:26;101077.28;;;12.99;54.88
26775;BME280;14362;51.902;7.626;2023-04-20T15:38:28;101084.19;;;12.85;55.96
26775;BME280;14362;51.902;7.626;2023-04-20T15:42:30;101075.97;;;12.80;54.86
26775;BME280;14362;51.902;7.626;2023-04-20T15:46:32;101073.50;;;12.53;55.21
26775;BME280;14362;51.902;7.626;2023-04-20T15:50:33;101071.84;;;12.35;56.60
26775;BME280;14362;51.902;7.626;2023-04-20T15:54:36;101069.88;;;12.27;56.61
26775;BME280;14362;51.902;7.626;2023-04-20T15:58:38;101059.03;;;12.25;56.33
26775;BME280;14362;51.902;7.626;2023-04-20T16:02:40;101068.56;;;12.16;57.38
26775;BME280;14362;51.902;7.626;2023-04-20T16:06:42;101069.06;;;12.18;58.09
26775;BME280;14362;51.902;7.626;2023-04-20T16:10:45;101067.56;;;12.29;58.28
26775;BME280;14362;51.902;7.626;2023-04-20T16:14:47;101084.16;;;12.17;58.57
26775;BME280;14362;51.902;7.626;2023-04-20T16:18:49;101068.88;;;12.06;58.94
26775;BME280;14362;51.902;7.626;2023-04-20T16:22:51;101073.16;;;12.12;59.36
26775;BME280;14362;51.902;7.626;2023-04-20T16:26:53;101077.28;;;12.15;59.54
26775;BME280;14362;51.902;7.626;2023-04-20T16:30:57;101087.59;;;11.97;60.97
26775;BME280;14362;51.902;7.626;2023-04-20T16:34:58;101087.91;;;11.96;62.32
26775;BME280;14362;51.902;7.626;2023-04-20T16:39:00;101096.91;;;11.76;64.27
26775;BME280;14362;51.902;7.626;2023-04-20T16:43:06;101095.84;;;11.63;68.29
26775;BME280;14362;51.902;7.626;2023-04-20T16:47:07;101102.34;;;11.50;76.77
26775;BME280;14362;51.902;7.626;2023-04-20T16:51:08;101098.81;;;11.36;75.98
26775;BME280;14362;51.902;7.626;2023-04-20T16:55:10;101095.94;;;11.19;78.52
26775;BME280;14362;51.902;7.626;2023-04-20T16:59:13;101092.97;;;11.16;79.73
26775;BME280;14362;51.902;7.626;2023-04-20T17:03:14;101098.50;;;11.08;83.58
26775;BME280;14362;51.902;7.626;2023-04-20T17:07:15;101102.09;;;11.08;84.82
26775;BME280;14362;51.902;7.626;2023-04-20T17:11:17;101112.34;;;10.91;89.60
26775;BME280;14362;51.902;7.626;2023-04-20T17:15:20;101112.13;;;10.87;89.75
26775;BME280;14362;51.902;7.626;2023-04-20T17:19:21;101112.63;;;10.89;95.56
26775;BME280;14362;51.902;7.626;2023-04-20T17:23:23;101115.88;;;10.83;100.00
26775;BME280;14362;51.902;7.626;2023-04-20T17:27:25;101107.50;;;10.83;100.00
26775;BME280;14362;51.902;7.626;2023-04-20T17:31:28;101115.41;;;10.89;97.85
26775;BME280;14362;51.902;7.626;2023-04-20T17:35:30;101115.63;;;10.71;100.00
26775;BME280;14362;51.902;7.626;2023-04-20T17:39:31;101118.19;;;10.67;100.00
26775;BME280;14362;51.902;7.626;2023-04-20T17:43:33;101119.22;;;10.71;100.00
26775;BME280;14362;51.902;7.626;2023-04-20T17:47:37;101121.75;;;10.59;100.00
26775;BME280;14362;51.902;7.626;2023-04-20T17:51:38;101116.22;;;10.46;100.00
26775;BME280;14362;51.902;7.626;2023-04-20T17:55:40;101125.28;;;10.51;100.00
26775;BME280;14362;51.902;7.626;2023-04-20T17:59:41;101127.78;;;10.53;100.00
26775;BME280;14362;51.902;7.626;2023-04-20T18:03:44;101125.19;;;10.43;100.00
26775;BME280;14362;51.902;7.626;2023-04-20T18:07:47;101139.34;;;10.46;100.00
26775;BME280;14362;51.902;7.626;2023-04-20T18:11:48;101132.44;;;10.44;100.00
26775;BME280;14362;51.902;7.626;2023-04-20T18:15:49;101138.50;;;10.46;100.00
26775;BME280;14362;51.902;7.626;2023-04-20T18:19:52;101143.91;;;10.42;100.00
26775;BME280;14362;51.902;7.626;2023-04-20T18:23:54;101140.41;;;10.37;100.00
26775;BME280;14362;51.902;7.626;2023-04-20T18:27:55;101134.47;;;10.52;100.00
26775;BME280;14362;51.902;7.626;2023-04-20T18:31:56;101138.53;;;10.32;100.00
26775;BME280;14362;51.902;7.626;2023-04-20T18:36:01;101125.63;;;10.36;100.00
26775;BME280;14362;51.902;7.626;2023-04-20T18:40:03;101115.88;;;10.25;100.00
26775;BME280;14362;51.902;7.626;2023-04-20T18:44:06;101115.13;;;10.20;100.00
26775;BME280;14362;51.902;7.626;2023-04-20T18:48:07;101134.03;;;10.23;100.00
26775;BME280;14362;51.902;7.626;2023-04-20T18:52:10;101128.78;;;10.21;100.00
26775;BME280;14362;51.902;7.626;2023-04-20T18:56:12;101126.72;;;10.14;100.00
26775;BME280;14362;51.902;7.626;2023-04-20T19:00:14;101120.53;;;10.17;100.00
26775;BME280;14362;51.902;7.626;2023-04-20T19:04:15;101119.28;;;10.22;100.00
26775;BME280;14362;51.902;7.626;2023-04-20T19:08:18;101130.97;;;10.11;100.00
26775;BME280;14362;51.902;7.626;2023-04-20T19:12:20;101122.69;;;10.06;100.00
26775;BME280;14362;51.902;7.626;2023-04-20T19:16:21;101124.22;;;9.99;100.00
26775;BME280;14362;51.902;7.626;2023-04-20T19:20:23;101133.00;;;9.92;100.00
26775;BME280;14362;51.902;7.626;2023-04-20T19:24:26;101116.09;;;10.02;100.00
26775;BME280;14362;51.902;7.626;2023-04-20T19:28:28;101118.41;;;10.00;100.00
26775;BME280;14362;51.902;7.626;2023-04-20T19:32:29;101122.38;;;9.94;100.00
26775;BME280;14362;51.902;7.626;2023-04-20T19:36:31;101118.47;;;9.95;100.00
26775;BME280;14362;51.902;7.626;2023-04-20T19:40:33;101118.47;;;9.95;100.00
26775;BME280;14362;51.902;7.626;2023-04-20T19:44:35;101102.56;;;9.96;100.00
26775;BME280;14362;51.902;7.626;2023-04-20T19:48:36;101103.31;;;9.88;100.00
26775;BME280;14362;51.902;7.626;2023-04-20T19:52:38;101103.31;;;9.88;100.00
26775;BME280;14362;51.902;7.626;2023-04-20T19:56:40;101103.00;;;9.89;100.00
26775;BME280;14362;51.902;7.626;2023-04-20T20:00:42;101103.09;;;9.84;100.00
26775;BME280;14362;51.902;7.626;2023-04-20T20:04:43;101106.53;;;9.81;100.00
26775;BME280;14362;51.902;7.626;2023-04-20T20:08:44;101103.31;;;9.74;100.00
26775;BME280;14362;51.902;7.626;2023-04-20T20:12:47;101103.41;;;9.69;100.00
26775;BME280;14362;51.902;7.626;2023-04-20T20:16:49;101100.44;;;9.79;100.00
26775;BME280;14362;51.902;7.626;2023-04-20T20:20:50;101100.97;;;9.68;100.00
26775;BME280;14362;51.902;7.626;2023-04-20T20:24:51;101111.66;;;9.74;100.00
26775;BME280;14362;51.902;7.626;2023-04-20T20:28:55;101113.94;;;9.72;100.00
26775;BME280;14362;51.902;7.626;2023-04-20T20:32:56;101093.75;;;9.67;100.00
26775;BME280;14362;51.902;7.626;2023-04-20T20:36:58;101084.44;;;9.58;100.00
26775;BME280;14362;51.902;7.626;2023-04-20T20:41:03;101098.28;;;9.63;100.00
26775;BME280;14362;51.902;7.626;2023-04-20T20:45:08;101095.16;;;9.64;100.00
26775;BME280;14362;51.902;7.626;2023-04-20T20:49:11;101094.25;;;9.69;100.00
26775;BME280;14362;51.902;7.626;2023-04-20T20:53:12;101101.56;;;9.65;100.00
26775;BME280;14362;51.902;7.626;2023-04-20T20:57:16;101075.38;;;9.66;100.00
26775;BME280;14362;51.902;7.626;2023-04-20T21:01:19;101081.66;;;9.71;100.00
26775;BME280;14362;51.902;7.626;2023-04-20T21:05:20;101063.31;;;9.57;100.00